Flight Number: EUR1565 Duration: 1:30
Departure: Olbia Costa Smeralda (LIEO) at 06:30 Distance: 542 Nm
Arrival: Luxembourg (ELLX) at 08:00 Equipment: B737

Weather Information
Olbia / Costa Smeralda, Italy (LIEO) 40-54N 009-31E 13M Sep 21, 2017 - 09:50 AM EDT / 2017.09.21 1350 UTC
Wind: from the NE (050 degrees) at 13 MPH (11 KT) (direction variable):0
Visibility: greater than 7 mile(s):0
Sky conditions: mostly clear Temperature: 73 F (23 C) Dew Point: 53 F (12 C) Relative Humidity: 49% Pressure (altimeter): 30.09 in. Hg (1019 hPa)
ob: LIEO 211350Z 05011KT 030V090 9999 FEW020 23/12 Q1019 cycle: 14
Sunrise: 05:12 Sunset: 17:17 (UTC)

Luxembourg / Luxembourg, Luxembourg (ELLX) 49-37N 006-13E 379M Sep 21, 2017 - 09:50 AM EDT / 2017.09.21 1350 UTC
Wind: from the SSE (150 degrees) at 7 MPH (6 KT) (direction variable):0
Visibility: greater than 7 mile(s):0 Temperature: 62 F (17 C) Dew Point: 46 F (8 C) Relative Humidity: 55% Pressure (altimeter): 30.12 in. Hg (1020 hPa)
ob: ELLX 211350Z 15006KT 100V190 CAVOK 17/08 Q1020 NOSIG cycle: 14
Sunrise: 05:24 Sunset: 17:31 (UTC)

TAF:2017/09/21 12:27 TAF TAF ELLX 211100Z 2112/2218 12006KT 9999 FEW020 PROB30 TEMPO 2202/2207 0600 FG BECMG 2209/2211 22005KT

Previous Pireps for this route
Date Aircraft Flight time Fuel used Landing rate On time
2016-05-16B73702.0810551-268No
(pireps marked green are flown by you)

Route map